createdAt,value
2024-02-12T00:01:33.167Z,6.00
2024-02-12T00:03:59.843Z,6.00
2024-02-12T00:06:26.875Z,6.00
2024-02-12T00:08:55.080Z,6.20
2024-02-12T00:11:21.884Z,6.47
2024-02-12T00:13:48.641Z,5.87
2024-02-12T00:16:15.345Z,6.20
2024-02-12T00:18:41.997Z,6.78
2024-02-12T00:21:09.102Z,7.05
2024-02-12T00:23:35.761Z,7.90
2024-02-12T00:26:03.917Z,7.37
2024-02-12T00:28:30.531Z,6.68
2024-02-12T00:30:57.100Z,6.65
2024-02-12T00:33:23.775Z,5.70
2024-02-12T00:35:50.368Z,6.07
2024-02-12T00:38:17.104Z,5.70
2024-02-12T00:40:43.649Z,6.00
2024-02-12T00:43:11.641Z,6.57
2024-02-12T00:45:38.183Z,6.03
2024-02-12T00:48:05.743Z,6.60
2024-02-12T00:50:32.702Z,7.43
2024-02-12T00:52:59.472Z,6.20
2024-02-12T00:55:26.176Z,6.20
2024-02-12T00:57:52.726Z,5.65
2024-02-12T01:00:21.137Z,5.07
2024-02-12T01:02:47.805Z,6.10
2024-02-12T01:05:14.455Z,5.13
2024-02-12T01:07:41.848Z,6.53
2024-02-12T01:10:09.367Z,6.20
2024-02-12T01:12:36.378Z,6.30
2024-02-12T01:15:03.311Z,5.43
2024-02-12T01:17:31.362Z,5.70
2024-02-12T01:19:58.110Z,5.50
2024-02-12T01:22:24.742Z,5.97
2024-02-12T01:24:51.526Z,6.82
2024-02-12T01:27:18.163Z,6.20
2024-02-12T01:29:44.783Z,6.72
2024-02-12T01:32:11.419Z,6.03
2024-02-12T01:34:39.470Z,5.90
2024-02-12T01:37:06.056Z,5.40
2024-02-12T01:39:32.670Z,5.90
2024-02-12T01:41:59.337Z,5.65
2024-02-12T01:44:25.950Z,5.50
2024-02-12T01:46:52.604Z,6.68
2024-02-12T01:49:20.013Z,6.97
2024-02-12T01:51:49.594Z,5.53
2024-02-12T01:54:16.844Z,5.88
2024-02-12T01:56:45.481Z,6.45
2024-02-12T01:59:12.276Z,6.80
2024-02-12T02:01:39.214Z,6.80
2024-02-12T02:04:06.285Z,5.57
2024-02-12T02:06:32.918Z,5.80
2024-02-12T02:09:00.830Z,6.30
2024-02-12T02:11:27.477Z,6.68
2024-02-12T02:13:54.776Z,6.38
2024-02-12T02:16:21.516Z,7.33
2024-02-12T02:18:49.167Z,6.45
2024-02-12T02:21:15.804Z,6.72
2024-02-12T02:23:42.684Z,7.05
2024-02-12T02:26:10.850Z,6.07
2024-02-12T02:28:37.542Z,6.10
2024-02-12T02:31:04.553Z,5.60
2024-02-12T02:33:31.754Z,5.80
2024-02-12T02:35:58.591Z,5.57
2024-02-12T02:38:25.334Z,5.72
2024-02-12T02:40:51.952Z,6.50
2024-02-12T02:43:19.861Z,6.07
2024-02-12T02:45:46.455Z,6.53
2024-02-12T02:48:13.138Z,6.00
2024-02-12T02:50:39.818Z,6.15
2024-02-12T02:53:06.583Z,5.63
2024-02-12T02:55:35.834Z,6.50
2024-02-12T02:58:02.405Z,5.40
2024-02-12T03:00:30.671Z,6.30
2024-02-12T03:02:57.406Z,5.43
2024-02-12T03:05:24.254Z,5.63
2024-02-12T03:07:51.059Z,6.63
2024-02-12T03:10:17.878Z,5.93
2024-02-12T03:12:45.812Z,5.50
2024-02-12T03:15:12.696Z,5.43
2024-02-12T03:17:42.887Z,6.17
2024-02-12T03:20:11.024Z,6.18
2024-02-12T03:22:38.426Z,8.13
2024-02-12T03:25:06.060Z,6.28
2024-02-12T03:27:32.859Z,6.40
2024-02-12T03:29:59.584Z,6.30
2024-02-12T03:32:29.238Z,6.10
2024-02-12T03:34:57.384Z,5.85
2024-02-12T03:37:24.289Z,6.10
2024-02-12T03:39:51.172Z,6.85
2024-02-12T03:42:17.805Z,6.33
2024-02-12T03:44:44.516Z,6.53
2024-02-12T03:47:11.277Z,6.43
2024-02-12T03:49:39.553Z,5.10
2024-02-12T03:52:07.647Z,5.63
2024-02-12T03:54:34.263Z,5.00
2024-02-12T03:57:00.974Z,8.80
2024-02-12T03:59:27.717Z,7.18
2024-02-12T04:01:54.341Z,5.70
2024-02-12T04:04:22.591Z,7.10
2024-02-12T04:06:49.267Z,5.80
2024-02-12T04:09:17.581Z,5.20
2024-02-12T04:11:44.408Z,5.50
2024-02-12T04:14:11.575Z,6.10
2024-02-12T04:16:38.387Z,5.80
2024-02-12T04:19:05.160Z,5.40
2024-02-12T04:21:31.853Z,5.47
2024-02-12T04:23:58.713Z,5.63
2024-02-12T04:26:26.937Z,5.18
2024-02-12T04:28:53.688Z,5.60
2024-02-12T04:31:20.663Z,5.40
2024-02-12T04:33:47.492Z,5.75
2024-02-12T04:36:14.250Z,5.28
2024-02-12T04:38:40.927Z,5.55
2024-02-12T04:41:07.599Z,5.20
2024-02-12T04:43:35.791Z,4.80
2024-02-12T04:46:02.718Z,5.00
2024-02-12T04:48:29.270Z,6.43
2024-02-12T04:50:55.813Z,5.63
2024-02-12T04:53:22.389Z,5.50
2024-02-12T04:55:49.277Z,5.47
2024-02-12T04:58:16.030Z,5.32
2024-02-12T05:00:43.952Z,5.90
2024-02-12T05:03:10.471Z,6.88
2024-02-12T05:05:37.111Z,6.90
2024-02-12T05:08:04.405Z,6.40
2024-02-12T05:10:31.040Z,5.90
2024-02-12T05:12:57.581Z,5.75
2024-02-12T05:15:24.126Z,5.40
2024-02-12T05:17:52.052Z,6.00
2024-02-12T05:20:21.996Z,5.97
2024-02-12T05:22:48.678Z,5.50
2024-02-12T05:25:15.470Z,5.78
2024-02-12T05:27:42.012Z,5.78
2024-02-12T05:30:08.882Z,5.95
2024-02-12T05:32:35.528Z,5.30
2024-02-12T05:35:03.838Z,5.60
2024-02-12T05:37:30.350Z,7.38
2024-02-12T05:39:57.131Z,6.57
2024-02-12T05:42:23.649Z,5.22
2024-02-12T05:44:50.241Z,5.80
2024-02-12T05:47:17.039Z,5.70
2024-02-12T05:49:44.618Z,6.07
2024-02-12T05:52:12.766Z,5.20
2024-02-12T05:54:39.340Z,6.07
2024-02-12T05:57:05.958Z,5.80
2024-02-12T05:59:32.589Z,6.40
2024-02-12T06:01:59.270Z,5.75
2024-02-12T06:04:25.791Z,6.18
2024-02-12T06:06:52.628Z,7.63
2024-02-12T06:09:20.748Z,6.40
2024-02-12T06:11:47.278Z,6.40
2024-02-12T06:14:13.829Z,7.35
2024-02-12T06:16:40.355Z,7.05
2024-02-12T06:19:06.909Z,6.45
2024-02-12T06:21:33.496Z,7.13
2024-02-12T06:23:59.996Z,7.50
2024-02-12T06:26:29.071Z,7.72
2024-02-12T06:28:55.727Z,6.57
2024-02-12T06:31:22.261Z,7.30
2024-02-12T06:33:49.018Z,7.53
2024-02-12T06:36:15.729Z,6.45
2024-02-12T06:38:42.377Z,6.38
2024-02-12T06:41:08.958Z,6.70
2024-02-12T06:43:36.810Z,6.78
2024-02-12T06:46:04.517Z,6.87
2024-02-12T06:48:31.362Z,7.57
2024-02-12T06:50:58.918Z,6.88
2024-02-12T06:53:25.432Z,6.20
2024-02-12T06:55:53.909Z,15.00
2024-02-12T06:58:20.558Z,14.37
2024-02-12T07:00:48.744Z,9.65
2024-02-12T07:03:15.299Z,8.75
2024-02-12T07:05:41.862Z,9.10
2024-02-12T07:08:15.596Z,14.85
2024-02-12T07:10:45.106Z,11.40
2024-02-12T07:13:23.754Z,9.07
2024-02-12T07:15:51.793Z,8.93
2024-02-12T07:18:18.535Z,8.05
2024-02-12T07:20:45.210Z,7.78
2024-02-12T07:23:11.971Z,8.00
2024-02-12T07:25:38.634Z,8.57
2024-02-12T07:28:05.410Z,8.10
2024-02-12T07:30:31.979Z,7.97
2024-02-12T07:33:00.341Z,7.72
2024-02-12T07:35:27.323Z,7.07
2024-02-12T07:37:53.886Z,7.22
2024-02-12T07:40:23.002Z,9.98
2024-02-12T07:42:49.649Z,7.85
2024-02-12T07:45:16.352Z,8.45
2024-02-12T07:47:43.421Z,6.63
2024-02-12T07:50:11.712Z,7.65
2024-02-12T07:52:40.357Z,7.47
2024-02-12T07:55:12.113Z,6.68
2024-02-12T07:57:38.872Z,7.28
2024-02-12T08:00:06.596Z,6.17
2024-02-12T08:02:33.155Z,6.85
2024-02-12T08:04:59.769Z,5.97
2024-02-12T08:07:41.222Z,6.38
2024-02-12T08:10:17.126Z,6.22
2024-02-12T08:12:44.135Z,6.97
2024-02-12T08:15:12.480Z,6.03
2024-02-12T08:17:42.216Z,8.77
2024-02-12T08:20:12.283Z,6.25
2024-02-12T08:22:40.356Z,8.18
2024-02-12T08:25:07.279Z,6.27
2024-02-12T08:27:33.865Z,7.07
2024-02-12T08:30:00.411Z,5.88
2024-02-12T08:32:27.115Z,6.97
2024-02-12T08:34:53.769Z,6.53
2024-02-12T08:37:20.397Z,6.13
2024-02-12T08:39:48.505Z,6.88
2024-02-12T08:42:15.075Z,6.22
2024-02-12T08:44:41.762Z,6.57
2024-02-12T08:47:08.455Z,6.80
2024-02-12T08:49:35.090Z,7.13
2024-02-12T08:52:01.694Z,5.75
2024-02-12T08:54:28.279Z,6.47
2024-02-12T08:56:56.198Z,6.72
2024-02-12T08:59:23.320Z,7.03
2024-02-12T09:01:50.119Z,7.27
2024-02-12T09:04:16.754Z,6.80
2024-02-12T09:06:43.699Z,6.80
2024-02-12T09:09:10.567Z,6.65
2024-02-12T09:11:37.116Z,6.47
2024-02-12T09:14:05.228Z,6.60
2024-02-12T09:16:31.814Z,6.30
2024-02-12T09:18:58.563Z,6.25
2024-02-12T09:21:25.203Z,6.63
2024-02-12T09:23:51.757Z,6.78
2024-02-12T09:26:18.565Z,7.60
2024-02-12T09:28:45.195Z,6.22
2024-02-12T09:31:13.068Z,6.13
2024-02-12T09:33:39.849Z,7.05
2024-02-12T09:36:06.839Z,6.15
2024-02-12T09:38:36.339Z,7.23
2024-02-12T09:41:03.243Z,5.93
2024-02-12T09:43:33.510Z,5.70
2024-02-12T09:46:03.164Z,6.25
2024-02-12T09:48:31.525Z,5.63
2024-02-12T09:50:59.074Z,8.27
2024-02-12T09:53:28.271Z,7.07
2024-02-12T09:55:56.783Z,6.07
2024-02-12T09:58:23.444Z,6.63
2024-02-12T10:00:50.027Z,5.82
2024-02-12T10:03:16.862Z,6.20
2024-02-12T10:05:45.937Z,6.68
2024-02-12T10:08:20.124Z,5.90
2024-02-12T10:10:47.492Z,6.03
2024-02-12T10:13:15.227Z,6.40
2024-02-12T10:15:42.337Z,6.97
2024-02-12T10:18:09.492Z,5.90
2024-02-12T10:20:36.102Z,6.57
2024-02-12T10:23:04.575Z,6.60
2024-02-12T10:25:31.506Z,5.70
2024-02-12T10:27:58.098Z,5.90
2024-02-12T10:30:24.786Z,8.18
2024-02-12T10:32:52.787Z,5.75
2024-02-12T10:35:21.962Z,6.47
2024-02-12T10:37:50.995Z,6.55
2024-02-12T10:40:27.361Z,5.77
2024-02-12T10:42:55.340Z,7.38
2024-02-12T10:45:22.289Z,6.57
2024-02-12T10:47:49.959Z,5.78
2024-02-12T10:50:17.199Z,6.32
2024-02-12T10:52:44.073Z,6.03
2024-02-12T10:55:11.433Z,5.70
2024-02-12T10:57:41.284Z,6.70
2024-02-12T11:00:09.260Z,6.18
2024-02-12T11:02:42.103Z,6.10
2024-02-12T11:05:09.222Z,6.27
2024-02-12T11:07:37.990Z,5.82
2024-02-12T11:10:06.764Z,6.22
2024-02-12T11:12:33.491Z,6.80
2024-02-12T11:15:01.947Z,7.05
2024-02-12T11:17:29.205Z,7.87
2024-02-12T11:19:56.069Z,8.43
2024-02-12T11:22:26.597Z,6.13
2024-02-12T11:24:53.376Z,6.03
2024-02-12T11:27:20.238Z,6.30
2024-02-12T11:29:47.808Z,5.63
2024-02-12T11:32:21.715Z,5.30
2024-02-12T11:34:48.631Z,5.50
2024-02-12T11:37:18.953Z,5.03
2024-02-12T11:39:56.304Z,5.22
2024-02-12T11:42:23.171Z,6.00
2024-02-12T11:44:49.918Z,6.88
2024-02-12T11:47:28.392Z,5.63
2024-02-12T11:49:55.217Z,5.80
2024-02-12T11:52:22.590Z,5.72
2024-02-12T11:54:49.266Z,5.40
2024-02-12T11:57:18.687Z,5.25
2024-02-12T11:59:45.955Z,5.47
2024-02-12T12:02:12.834Z,6.53
2024-02-12T12:04:42.893Z,4.90
2024-02-12T12:07:15.726Z,4.83
2024-02-12T12:09:42.530Z,4.47
2024-02-12T12:12:09.277Z,4.60
2024-02-12T12:14:36.863Z,4.90
2024-02-12T12:17:28.834Z,5.63
2024-02-12T12:19:51.938Z,7.30
2024-02-12T12:22:18.806Z,4.80
2024-02-12T12:24:45.570Z,6.22
2024-02-12T12:27:22.626Z,8.93
2024-02-12T12:29:49.442Z,8.10
2024-02-12T12:32:16.155Z,5.50
2024-02-12T12:34:45.830Z,5.75
2024-02-12T12:37:14.018Z,4.97
2024-02-12T12:39:40.978Z,4.80
2024-02-12T12:42:08.017Z,5.03
2024-02-12T12:44:35.408Z,4.80
2024-02-12T12:47:02.200Z,4.95
2024-02-12T12:49:29.124Z,4.30
2024-02-12T12:51:56.900Z,4.40
2024-02-12T12:54:26.064Z,4.80
2024-02-12T12:56:52.855Z,4.80
2024-02-12T12:59:19.673Z,4.90
2024-02-12T13:01:46.476Z,5.00
2024-02-12T13:04:13.482Z,5.00
2024-02-12T13:06:40.689Z,4.72
2024-02-12T13:09:07.838Z,4.80
2024-02-12T13:11:36.706Z,5.45
2024-02-12T13:14:03.690Z,4.82
2024-02-12T13:16:30.354Z,5.03
2024-02-12T13:18:56.923Z,6.15
2024-02-12T13:21:23.801Z,5.13
2024-02-12T13:23:50.506Z,5.40
2024-02-12T13:26:17.115Z,6.50
2024-02-12T13:28:45.310Z,6.72
2024-02-12T13:31:14.466Z,6.03
2024-02-12T13:33:42.572Z,6.87
2024-02-12T13:36:09.838Z,6.38
2024-02-12T13:38:36.697Z,6.70
2024-02-12T13:41:03.387Z,6.80
2024-02-12T13:43:30.034Z,6.28
2024-02-12T13:45:58.337Z,6.20
2024-02-12T13:48:25.285Z,5.97
2024-02-12T13:50:51.944Z,6.40
2024-02-12T13:53:18.845Z,6.50
2024-02-12T13:55:45.688Z,5.30
2024-02-12T13:58:12.374Z,4.90
2024-02-12T14:00:55.524Z,6.53
2024-02-12T14:03:27.574Z,6.30
2024-02-12T14:05:54.537Z,5.90
2024-02-12T14:08:21.257Z,6.75
2024-02-12T14:10:48.024Z,5.30
2024-02-12T14:13:14.643Z,5.20
2024-02-12T14:16:04.400Z,5.50
2024-02-12T14:18:30.622Z,4.90
2024-02-12T14:20:57.314Z,8.88
2024-02-12T14:23:24.048Z,5.00
2024-02-12T14:25:50.733Z,9.02
2024-02-12T14:28:17.506Z,5.68
2024-02-12T14:30:44.411Z,6.55
2024-02-12T14:33:11.179Z,6.70
2024-02-12T14:35:39.938Z,5.33
2024-02-12T14:38:06.994Z,5.03
2024-02-12T14:40:33.614Z,5.72
2024-02-12T14:43:00.376Z,5.85
2024-02-12T14:45:26.979Z,5.68
2024-02-12T14:47:53.724Z,5.47
2024-02-12T14:50:20.667Z,6.25
2024-02-12T14:52:48.750Z,6.10
2024-02-12T14:55:16.565Z,6.22
2024-02-12T14:57:43.934Z,5.00
2024-02-12T15:00:11.599Z,5.40
2024-02-12T15:02:38.169Z,11.32
2024-02-12T15:05:06.078Z,9.18
2024-02-12T15:07:32.796Z,7.30
2024-02-12T15:10:00.722Z,6.72
2024-02-12T15:12:27.362Z,5.60
2024-02-12T15:14:54.025Z,5.20
2024-02-12T15:17:20.785Z,5.72
2024-02-12T15:19:48.171Z,7.22
2024-02-12T15:22:14.760Z,6.00
2024-02-12T15:24:41.368Z,7.20
2024-02-12T15:27:09.565Z,5.90
2024-02-12T15:29:36.711Z,6.50
2024-02-12T15:32:05.783Z,6.38
2024-02-12T15:34:32.710Z,6.13
2024-02-12T15:36:59.398Z,5.50
2024-02-12T15:39:26.027Z,6.53
2024-02-12T15:41:52.846Z,7.38
2024-02-12T15:44:20.852Z,6.30
2024-02-12T15:46:47.459Z,6.63
2024-02-12T15:49:14.417Z,5.20
2024-02-12T15:51:45.401Z,6.22
2024-02-12T15:54:11.941Z,7.32
2024-02-12T15:56:38.602Z,7.22
2024-02-12T15:59:05.242Z,9.18
2024-02-12T16:01:33.184Z,6.70
2024-02-12T16:04:00.147Z,5.90
2024-02-12T16:06:26.995Z,6.25
2024-02-12T16:08:54.826Z,7.25
2024-02-12T16:11:23.388Z,6.80
2024-02-12T16:13:53.935Z,8.93
2024-02-12T16:16:20.676Z,7.60
2024-02-12T16:18:49.040Z,7.97
2024-02-12T16:21:15.681Z,6.82
2024-02-12T16:23:42.359Z,6.80
2024-02-12T16:26:09.140Z,5.93
2024-02-12T16:28:35.783Z,7.15
2024-02-12T16:31:02.613Z,11.23
2024-02-12T16:33:29.357Z,6.65
2024-02-12T16:35:57.728Z,6.47
2024-02-12T16:38:24.931Z,6.80
2024-02-12T16:40:51.919Z,7.05
2024-02-12T16:43:18.640Z,7.53
2024-02-12T16:45:45.364Z,6.80
2024-02-12T16:48:14.657Z,7.00
2024-02-12T16:50:43.169Z,7.40
2024-02-12T16:53:11.482Z,12.18
2024-02-12T16:55:40.367Z,26.48
2024-02-12T16:58:07.292Z,30.05
2024-02-12T17:00:34.051Z,13.20
2024-02-12T17:03:01.518Z,25.53
2024-02-12T17:05:28.607Z,31.60
2024-02-12T17:08:05.978Z,15.95
2024-02-12T17:10:36.588Z,9.43
2024-02-12T17:13:03.504Z,8.45
2024-02-12T17:15:30.487Z,11.10
2024-02-12T17:17:59.708Z,9.50
2024-02-12T17:20:26.665Z,9.45
2024-02-12T17:22:55.984Z,9.15
2024-02-12T17:25:22.924Z,6.50
2024-02-12T17:27:51.041Z,7.23
2024-02-12T17:30:18.126Z,9.15
2024-02-12T17:32:44.935Z,7.95
2024-02-12T17:35:12.393Z,7.35
2024-02-12T17:37:40.049Z,7.43
2024-02-12T17:40:08.113Z,6.63
2024-02-12T17:42:35.282Z,6.53
2024-02-12T17:45:04.065Z,7.43
2024-02-12T17:47:47.194Z,9.77
2024-02-12T17:50:14.220Z,9.68
2024-02-12T17:53:24.883Z,9.27
2024-02-12T17:59:47.147Z,7.75
2024-02-12T18:02:21.226Z,7.60
2024-02-12T18:04:48.123Z,7.15
2024-02-12T18:07:21.073Z,7.60
2024-02-12T18:09:52.225Z,10.45
2024-02-12T18:12:41.629Z,8.95
2024-02-12T18:15:16.754Z,9.80
2024-02-12T18:18:06.643Z,8.32
2024-02-12T18:20:33.430Z,10.23
2024-02-12T18:22:59.984Z,11.65
2024-02-12T18:25:27.277Z,13.48
2024-02-12T18:27:53.865Z,13.68
2024-02-12T18:30:20.685Z,15.18
2024-02-12T18:32:52.283Z,15.47
2024-02-12T18:35:20.896Z,14.07
2024-02-12T18:37:50.316Z,20.08
2024-02-12T18:40:18.999Z,19.00
2024-02-12T18:42:46.555Z,16.92
2024-02-12T18:45:14.682Z,14.20
2024-02-12T18:47:41.513Z,16.60
2024-02-12T18:50:09.041Z,18.50
2024-02-12T18:52:41.159Z,17.48
2024-02-12T18:55:13.436Z,14.50
2024-02-12T18:57:41.711Z,15.83
2024-02-12T19:01:07.004Z,15.25
2024-02-12T19:09:45.295Z,19.00
2024-02-12T19:12:12.099Z,18.30
2024-02-12T19:14:38.794Z,16.90
2024-02-12T19:17:05.633Z,15.43
2024-02-12T19:19:32.245Z,16.38
2024-02-12T19:21:58.982Z,17.02
2024-02-12T19:24:25.516Z,16.30
2024-02-12T19:26:53.479Z,17.83
2024-02-12T19:29:20.491Z,17.88
2024-02-12T19:31:47.426Z,18.10
2024-02-12T19:34:14.076Z,20.75
2024-02-12T19:36:40.696Z,19.77
2024-02-12T19:39:07.282Z,18.88
2024-02-12T19:41:34.029Z,19.27
2024-02-12T19:44:02.150Z,17.67
2024-02-12T19:46:29.961Z,16.38
2024-02-12T19:48:56.590Z,15.20
2024-02-12T19:51:23.175Z,15.90
2024-02-12T19:53:49.981Z,16.35
2024-02-12T19:56:16.948Z,15.93
2024-02-12T19:58:44.086Z,16.63
2024-02-12T20:01:12.124Z,16.60
2024-02-12T20:03:38.836Z,13.98
2024-02-12T20:06:05.994Z,15.13
2024-02-12T20:08:32.966Z,14.93
2024-02-12T20:10:59.601Z,15.55
2024-02-12T20:13:26.203Z,15.27
2024-02-12T20:15:52.829Z,13.43
2024-02-12T20:18:20.987Z,11.88
2024-02-12T20:20:47.865Z,13.90
2024-02-12T20:23:14.741Z,14.93
2024-02-12T20:25:41.351Z,13.43
2024-02-12T20:28:08.046Z,14.00
2024-02-12T20:30:35.010Z,14.88
2024-02-12T20:33:01.743Z,14.50
2024-02-12T20:35:29.824Z,13.55
2024-02-12T20:38:01.124Z,15.30
2024-02-12T20:40:27.870Z,15.00
2024-02-12T20:42:54.435Z,13.57
2024-02-12T20:45:21.172Z,12.65
2024-02-12T20:47:48.001Z,11.02
2024-02-12T20:50:15.011Z,12.77
2024-02-12T20:52:43.000Z,10.73
2024-02-12T20:55:09.975Z,10.63
2024-02-12T20:57:36.635Z,12.05
2024-02-12T21:00:05.986Z,11.98
2024-02-12T21:02:32.588Z,10.60
2024-02-12T21:04:59.178Z,10.65
2024-02-12T21:07:25.788Z,12.95
2024-02-12T21:09:53.821Z,12.63
2024-02-12T21:12:20.457Z,13.68
2024-02-12T21:14:47.033Z,14.43
2024-02-12T21:17:13.736Z,14.05
2024-02-12T21:19:40.539Z,12.23
2024-02-12T21:22:07.151Z,15.02
2024-02-12T21:24:33.713Z,15.05
2024-02-12T21:27:01.632Z,16.20
2024-02-12T21:29:28.232Z,13.27
2024-02-12T21:31:55.187Z,10.68
2024-02-12T21:34:21.932Z,11.45
2024-02-12T21:36:48.678Z,10.98
2024-02-12T21:39:15.449Z,10.47
2024-02-12T21:41:42.094Z,12.98
2024-02-12T21:44:10.580Z,11.35
2024-02-12T21:46:37.831Z,12.10
2024-02-12T21:49:04.543Z,12.35
2024-02-12T21:51:31.163Z,11.67
2024-02-12T21:53:57.781Z,13.38
2024-02-12T21:56:24.491Z,11.38
2024-02-12T21:58:51.105Z,11.38
2024-02-12T22:01:19.267Z,11.45
2024-02-12T22:03:46.076Z,12.40
2024-02-12T22:06:12.955Z,12.32
2024-02-12T22:08:39.701Z,11.90
2024-02-12T22:11:06.365Z,12.48
2024-02-12T22:13:33.161Z,11.93
2024-02-12T22:15:59.725Z,12.43
2024-02-12T22:18:30.580Z,13.75
2024-02-12T22:20:57.331Z,12.80
2024-02-12T22:23:23.984Z,13.35
2024-02-12T22:25:50.632Z,11.60
2024-02-12T22:28:17.200Z,15.50
2024-02-12T22:30:43.886Z,15.77
2024-02-12T22:33:10.786Z,13.90
2024-02-12T22:35:39.077Z,15.68
2024-02-12T22:38:05.794Z,14.65
2024-02-12T22:40:32.549Z,15.40
2024-02-12T22:42:59.119Z,16.23
2024-02-12T22:45:25.661Z,16.30
2024-02-12T22:47:53.255Z,15.10
2024-02-12T22:50:21.305Z,15.23
2024-02-12T22:52:49.607Z,16.43
2024-02-12T22:55:16.852Z,16.35
2024-02-12T22:57:43.507Z,15.23
2024-02-12T23:00:11.558Z,14.73
2024-02-12T23:02:38.213Z,16.15
2024-02-12T23:05:05.358Z,13.80
2024-02-12T23:07:32.178Z,15.73
2024-02-12T23:10:00.349Z,15.98
2024-02-12T23:12:27.167Z,17.08
2024-02-12T23:14:54.036Z,16.05
2024-02-12T23:17:20.697Z,17.17
2024-02-12T23:19:47.518Z,17.17
2024-02-12T23:22:14.381Z,15.65
2024-02-12T23:24:40.939Z,14.93
2024-02-12T23:27:08.887Z,16.25
2024-02-12T23:29:35.519Z,14.10
2024-02-12T23:32:02.107Z,14.20
2024-02-12T23:34:28.945Z,14.32
2024-02-12T23:36:55.661Z,14.35
2024-02-12T23:39:22.232Z,12.68
2024-02-12T23:41:49.027Z,12.73
2024-02-12T23:44:16.999Z,12.88
2024-02-12T23:46:43.556Z,12.80
2024-02-12T23:49:10.319Z,12.93
2024-02-12T23:51:37.004Z,13.35
2024-02-12T23:54:03.725Z,14.67
2024-02-12T23:56:30.294Z,14.73
2024-02-12T23:58:56.900Z,13.68
